Timeline UpdatesTrip UpdatesNews PostsPvt Posts♥♥Travel TipsAdmin PostsConv PostsFollowed PostsChat RequestsBlog PostsPNR Posts

Disclaimer
Search
 
 
Fri Nov 28, 2014 17:45:49 ISTHomeTrainsΣChainsAtlasPNRForumGalleryNewsFAQTripsMembersLoginFeedback
No Recent News for this Train
Other Trains in the News **new
Latest...
Shall run from BNW on 17th March, 2011. News Post# 19412
Wed Mar 16, 2011 (09:33PM)
⇐ Return Journey: Train# 54784

54783/Fazilka Rewari Passenger (UnReserved)

Time-Table HAS CHANGED.
Sep 03 2014 (10:32AM)
Change Departure Station:
Change Arrival Station:
Post a Train Travel TipPost a Train Travel Tip **new
Post a Comment/Question/Picture/VideoPost a Comment/Question/Picture/Video
Pantry/Catering
???
RSA - Rake Sharing
Rake/Coach Composition
Loco
News    PNR    Forum    Time-Table    Availability    Fare Chart    Map    Arr/Dep History    Trips    Gallery    ΣChains    X/O    Timeline    
Travel Time: 10h 44m    51 halts    Distance: 374 km    Avg Speed: 34 km/hr
Type: Passenger
Zone: NWR/North Western
Departs @ 08:35 (Avg 1m late)
Platform# ???
SMTWTFS
Fazilka Junction/FKA 
Arrives @ 19:19
Platform# 1
SMTWTFS
Patuwas Mehrana/PUW 

51 halts. 51 intermediate Stations between Fazilka Junction and Patuwas Mehrana

Show ALL intermediate Stations  Show Old Time-Table

#TrkCodeStation NameX/OArrivesAvgDepartsAvgHaltPFDay#KmSpeedElevZoneAddress
1|--|FKAFazilka Junction (2)»  -08:35+1--10.076181mNRFazilka, Punjab
2|--|CKLAChak Banwala  08:45-08:46-1m--112.741182mNRChimne Wala, Punjab
3|--|CKAChak Pakhewala  08:52-08:53-1m--116.738183mNRChimne Wala, Punjab
4|--|RRWRoranwala  09:02-09:03-1m--122.451188mNRJandwala Bhimeshah, Punjab
5|--|LKWLakhewali (1)X  09:11 09:13+409:13 09:15+172m1130.920194mNRCourt Rd, Punjab
6|--|BSGRBhagsar  09:21 09:31-09:22 09:32-1m--136.349197mNRRamgarh Chungha, Punjab
7|--|BDBGBadhai Balamgarh Halt  09:27 09:38-09:28 09:39-1m--141.244200mNRBadhai Balamgarh, Punjab
8|--|MKSMuktsar  09:36 09:48+709:38 09:50+82m1147.845199mNRMuktsar, Punjab
9|--|CWNCharawan  09:47 09:59-09:48 10:00-1m--154.634201mNRState Highway 16, Punjab
10|--|JBWJhabelwali  09:52 10:04-09:53 10:05-1m--156.956201mNRState Highway 16, Punjab
11|--|BRWBariwala  09:59 10:11+1010:01 10:13+102m--162.452206mNRMandi Bariwala, Punjab
12|--|WDJWanderjatana  10:11 10:23-10:12 10:24-1m--171.121203mNRState Highway 16, Punjab
13|--|KKPKot Kapura Junction (3)  10:28 10:50+010:30 10:53+32 3m1180.1610mNRKotkapura, Punjab
14|--|RLSRomana Albel Singh (1)X  10:38 11:01+610:40 11:03+152m1188.316208mNRKotkapura Jaitu Rd, Punjab
15|--|AJTMAjitgill Matta (1)  10:46 11:16-10:47 11:17-1m1191.771209mNRKotkapura Jaitu Rd, Punjab
16|--|GJUTGangsar Jaitu (3)  10:53 11:21+710:55 11:23+72m--196.451207mNRJaitu, Punjab
17|--|CBXChand Bhan  11:06 11:31+711:08 11:32+82 1m--1103.156211mNRJaitu, Punjab
18|--|GNAGoneana Bhai Jagta (3)  11:16 11:40+911:18 11:42+92m--1110.526206mNRGoniana, Punjab
19|--|BTIBathinda Junction (6)X  11:55 12:10-112:40+045 30m--1122.860208mNRBathinda, Punjab
20|--|GHBGahri Bhagi  12:54-12:55-1m--1136.917205mNWRGahri Bhagi, Punjab
21|--|SGAShergarh  13:02+713:03+81m--1138.931205mNWRBathinda, Punjab
22|--|MKBHManwala Kot Bak  13:09-13:10-1m--1141.943208mNWRManwala Kot Bak, Punjab
23|--|BNLSBangi Nihalsingh  13:15-13:16-1m--1145.552207mNWRBangi Nihalsingh, Punjab
24|--|RMNRaman  13:22+713:23+81m--1150.744204mNWRRama Mandi, Punjab
25|--|RKKRatangarh Kanakwal  13:31+713:32+81m--1156.649205mNWRRatangarh Kanakwal, Punjab
26|--|KNLKalanwali  13:42+813:43+101m--1164.844206mNWRKalanwali, Haryana
27|--|SCVSukhchain  13:53-13:54-1m--1172.159206mNWRSukhchain, Haryana
28|--|BGDBara Gudah  14:02+814:03+111m--1180.164204mNWRBara Gudha, Haryana
29|--|SSASirsa (1)X  14:25 14:20+714:40 14:30+1415 10m11198.347203mNWRSirsa, Haryana
30|--|BJKNBajekan  14:47 14:36-14:48 14:38-1 2m--1203.067203mNWRBajekan, Haryana
31|--|SHNSuchan Kotli  14:57 14:47+1714:58 14:48+181m--1213.043205mNWRSuchan, Haryana
32|--|JOKJodhka  15:04 14:54-15:05 14:55-1m--1217.353205mNWRSirsa, Haryana
33|--|DINGDing  15:12 15:01+1915:13 15:03+191 2m--1222.652206mNWRSirsa, Haryana
34|--|MHULMehuwala Halt  15:22 15:12-15:23 15:13-1m--1230.443210mNWRMehuwala Halt, Haryana
35|--|BHTBhattu  15:29 15:18+1815:30 15:20+171 2m--1234.056212mNWRBhattu Kalan, Haryana
36|--|KBKNKhabra Kalan  15:38 15:27-15:39 15:29-1 2m--1240.572216mNWRKhabra Kalan, Haryana
37|--|ADRMandi Adampur  15:49 15:38+1715:50 15:40+171 2m--1251.359210mNWRHisar, Haryana
38|--|JKHIJakhod Khera  16:03 15:53+1616:04 15:54+161m--1264.153211mNWRJakhodlkhera, Haryana
39|--|NKNNyoli Kalan  16:12 16:01-16:13 16:02-1m--1270.245213mNWRNyoli Kalan, Haryana
40|--%HSRHisar Junction (6)X  16:25 16:15+1117:10 17:00+645m--1280.163215mNWRHisar, Haryana
41%--%STDSatrod  17:21 17:10+1217:22 17:12+131 2m--1290.635215mNWRHisar, Haryana
42%--%MAYRMayar  17:29 17:19-17:30 17:20-1m--1294.763216mNWRMayar, Haryana
43%--%HNSHansi (1)  17:39 17:28+1217:40 17:30+121 2m11303.238217mNWRHissar, Haryana
44%--%AUNAurang Nagar  17:49 17:39-17:50 17:40-1m--1309.063216mNWRAurang Nagar, Haryana
45%--%JKZJitakheri  17:55 17:44+1417:56 17:46+141 2m--1313.241217mNWRBhiwani, Haryana
46%--%BWKBawani KheraX  18:06 17:59+1318:08 18:00+212 1m--1322.135215mNWRBawani Khera, Haryana
47%--%SUISui  18:17 18:09-18:18 18:10-1m--1327.438216mNWRBhiwani, Haryana
48%--%BNWBhiwani Junction (3)  18:45 18:30+1018:55 18:35+1110 5m--1340.150216mNWRBhiwani, Haryana
49%--%DZLDhana Ladanpur (1)  19:02 18:42-19:03 18:43-1m11345.958219mNWRDhana Ladanpur, Haryana
50%-=!MHUManheru (1)  19:10 18:51+1319:11 18:52+141m11353.750216mNWRBhiwani, Haryana
51!==!FGHFatehgarh Haryana (1)X  19:20 19:00-19:21 19:01-1m11360.456217mNWRFatehgarh, Haryana
52!==!CKDCharkhi Dadri (1)  19:28 19:08+1219:30 19:10+132m11367.049217mNWRDist. Bhiwani, Haryana
53!==!PUWPatuwas Mehrana (1)•  19:39 19:19-19:40 19:20-1m11374.352226mNWRMehrana, Haryana
54!==!JRLJharili (1)  19:46 19:28+1419:47 19:29+161m11381.360234mNWRJhajjar, Haryana
55!==!SDRASudharana (1)X  19:57 19:37+1719:58 19:39+191 2m11389.449230mNWRSudharana, Haryana
56!==!KSIKosli (1)  20:05 19:46+1920:06 19:48+191 2m11395.145236mNWRTumna Rd, Haryana
57!==!NLQNangal Pathani Halt (1)  20:13 19:56-20:14 19:57-1m11401.152231mNWRNangal Pathani, Haryana
58!==!JTSJatusana (1)  20:19 20:02+1820:20 20:04+181 2m11405.561243mNWRNanagal Pathani Rd, Haryana
59!==!KGBSKishangarh Balawas (1)  20:30 20:13+1820:31 20:15+181 2m11414.614240mNWRKishengarh, Haryana
60!==!RERewari Junction (8)  21:10 20:50+1-81423.0-245mNWRRewari, Haryana
Scroll to Top
Scroll to Bottom